createdAt,value
2018-09-22T00:02:54.166Z,11.70
2018-09-22T00:07:58.098Z,11.50
2018-09-22T00:13:01.569Z,11.40
2018-09-22T00:18:05.267Z,11.40
2018-09-22T00:23:08.801Z,11.30
2018-09-22T00:28:12.283Z,11.20
2018-09-22T00:33:15.776Z,11.30
2018-09-22T00:38:19.685Z,11.20
2018-09-22T00:43:23.970Z,11.10
2018-09-22T00:48:27.730Z,11.00
2018-09-22T00:53:32.343Z,10.90
2018-09-22T00:58:36.284Z,10.90
2018-09-22T01:03:39.744Z,10.90
2018-09-22T01:08:43.334Z,10.90
2018-09-22T01:13:46.908Z,10.80
2018-09-22T01:18:50.415Z,10.70
2018-09-22T01:23:53.944Z,10.70
2018-09-22T01:28:57.876Z,10.80
2018-09-22T01:34:02.077Z,10.80
2018-09-22T01:39:07.067Z,10.90
2018-09-22T01:44:11.669Z,10.90
2018-09-22T01:49:15.192Z,10.70
2018-09-22T01:54:18.805Z,10.70
2018-09-22T01:59:22.280Z,10.80
2018-09-22T02:04:25.999Z,10.80
2018-09-22T02:09:29.466Z,10.80
2018-09-22T02:14:33.012Z,10.70
2018-09-22T02:19:36.667Z,10.70
2018-09-22T02:24:41.034Z,10.70
2018-09-22T02:29:45.004Z,10.60
2018-09-22T02:34:49.543Z,10.70
2018-09-22T02:39:54.328Z,10.70
2018-09-22T02:44:57.806Z,10.70
2018-09-22T02:50:01.252Z,10.60
2018-09-22T02:55:05.063Z,10.50
2018-09-22T03:00:09.290Z,10.50
2018-09-22T03:05:13.317Z,10.30
2018-09-22T03:10:17.360Z,10.10
2018-09-22T03:15:21.705Z,10.00
2018-09-22T03:20:25.227Z,9.80
2018-09-22T03:25:28.997Z,9.70
2018-09-22T03:30:32.594Z,9.60
2018-09-22T03:35:36.345Z,9.50
2018-09-22T03:40:40.084Z,9.40
2018-09-22T03:45:43.523Z,9.30
2018-09-22T03:50:47.251Z,9.20
2018-09-22T03:55:51.318Z,9.10
2018-09-22T04:00:55.334Z,9.10
2018-09-22T04:05:59.512Z,9.10
2018-09-22T04:11:03.380Z,9.20
2018-09-22T04:16:07.422Z,9.30
2018-09-22T04:21:10.947Z,9.30
2018-09-22T04:26:14.447Z,9.50
2018-09-22T04:31:17.932Z,9.70
2018-09-22T04:36:21.447Z,9.70
2018-09-22T04:41:25.929Z,9.70
2018-09-22T04:46:30.217Z,9.80
2018-09-22T04:51:34.618Z,9.80
2018-09-22T04:56:38.151Z,9.80
2018-09-22T05:01:41.878Z,9.80
2018-09-22T05:06:45.580Z,9.70
2018-09-22T05:11:49.064Z,9.60
2018-09-22T05:16:52.702Z,9.40
2018-09-22T05:21:56.599Z,9.20
2018-09-22T05:27:00.656Z,9.00
2018-09-22T05:32:04.720Z,8.80
2018-09-22T05:37:09.766Z,8.60
2018-09-22T05:42:13.677Z,8.40
2018-09-22T05:47:17.467Z,8.30
2018-09-22T05:52:21.003Z,8.40
2018-09-22T05:57:24.729Z,8.60
2018-09-22T06:02:29.648Z,9.00
2018-09-22T06:07:33.550Z,9.50
2018-09-22T06:12:37.610Z,10.00
2018-09-22T06:17:41.418Z,10.50
2018-09-22T06:22:44.885Z,10.90
2018-09-22T06:27:48.352Z,11.30
2018-09-22T06:32:51.832Z,12.00
2018-09-22T06:37:55.410Z,12.70
2018-09-22T06:42:59.354Z,13.60
2018-09-22T06:48:03.235Z,14.50
2018-09-22T06:53:07.550Z,15.00
2018-09-22T06:58:11.329Z,15.30
2018-09-22T07:03:15.185Z,15.20
2018-09-22T07:08:19.036Z,15.60
2018-09-22T07:13:22.620Z,15.90
2018-09-22T07:18:26.141Z,16.50
2018-09-22T07:23:29.650Z,16.10
2018-09-22T07:28:34.143Z,16.00
2018-09-22T07:33:44.022Z,16.40
2018-09-22T07:38:48.005Z,16.30
2018-09-22T07:43:51.493Z,16.40
2018-09-22T07:48:55.147Z,17.20
2018-09-22T07:53:59.067Z,18.20
2018-09-22T07:59:03.285Z,18.90
2018-09-22T08:04:07.985Z,18.60
2018-09-22T08:09:11.990Z,19.40
2018-09-22T08:14:15.547Z,21.10
2018-09-22T08:19:19.157Z,21.20
2018-09-22T08:24:23.374Z,20.60
2018-09-22T08:29:27.605Z,20.70
2018-09-22T08:34:31.625Z,21.10
2018-09-22T08:39:35.770Z,20.90
2018-09-22T08:44:39.432Z,21.00
2018-09-22T08:49:43.413Z,21.40
2018-09-22T08:54:46.897Z,20.40
2018-09-22T08:59:50.345Z,20.30
2018-09-22T09:04:53.898Z,20.50
2018-09-22T09:09:57.411Z,20.50
2018-09-22T09:15:01.195Z,20.40
2018-09-22T09:20:05.256Z,20.50
2018-09-22T09:25:08.956Z,20.80
2018-09-22T09:30:13.148Z,20.40
2018-09-22T09:35:18.230Z,20.80
2018-09-22T09:40:22.349Z,20.80
2018-09-22T09:45:25.868Z,21.60
2018-09-22T09:50:29.406Z,21.70
2018-09-22T09:55:33.069Z,21.30
2018-09-22T10:00:46.171Z,20.50
2018-09-22T10:05:49.728Z,20.20
2018-09-22T10:10:53.199Z,20.00
2018-09-22T10:15:57.562Z,20.50
2018-09-22T10:21:02.377Z,20.90
2018-09-22T10:26:06.468Z,21.00
2018-09-22T10:31:10.434Z,20.80
2018-09-22T10:36:14.160Z,20.80
2018-09-22T10:41:17.808Z,20.70
2018-09-22T10:46:21.339Z,20.50
2018-09-22T10:51:24.994Z,20.20
2018-09-22T10:56:28.913Z,20.50
2018-09-22T11:01:32.708Z,20.00
2018-09-22T11:06:36.823Z,19.50
2018-09-22T11:11:46.674Z,19.20
2018-09-22T11:16:50.889Z,20.20
2018-09-22T11:21:54.484Z,21.00
2018-09-22T11:26:58.066Z,21.30
2018-09-22T11:32:01.881Z,21.80
2018-09-22T11:37:05.967Z,21.20
2018-09-22T11:42:10.062Z,20.60
2018-09-22T11:47:14.827Z,20.50
2018-09-22T11:52:19.205Z,20.30
2018-09-22T11:57:23.073Z,19.80
2018-09-22T12:02:26.933Z,19.50
2018-09-22T12:07:30.612Z,19.80
2018-09-22T12:12:34.127Z,20.10
2018-09-22T12:17:37.819Z,20.30
2018-09-22T12:22:41.514Z,20.40
2018-09-22T12:27:45.999Z,20.30
2018-09-22T12:32:49.902Z,20.20
2018-09-22T12:37:53.637Z,20.30
2018-09-22T12:42:58.357Z,21.10
2018-09-22T12:48:03.492Z,20.50
2018-09-22T12:53:07.814Z,20.50
2018-09-22T12:58:12.119Z,20.70
2018-09-22T13:03:16.587Z,20.60
2018-09-22T13:08:20.299Z,20.60
2018-09-22T13:13:24.138Z,20.10
2018-09-22T13:18:27.834Z,20.00
2018-09-22T13:23:31.531Z,19.90
2018-09-22T13:28:35.755Z,20.50
2018-09-22T13:33:39.741Z,20.70
2018-09-22T13:38:43.942Z,20.80
2018-09-22T13:43:47.396Z,20.50
2018-09-22T13:48:50.977Z,20.70
2018-09-22T13:53:54.430Z,20.30
2018-09-22T13:58:58.167Z,20.10
2018-09-22T14:04:01.695Z,19.90
2018-09-22T14:09:08.777Z,19.80
2018-09-22T14:14:12.834Z,19.90
2018-09-22T14:19:17.120Z,19.90
2018-09-22T14:24:20.985Z,19.50
2018-09-22T14:29:25.046Z,19.40
2018-09-22T14:34:29.641Z,19.30
2018-09-22T14:39:34.928Z,19.10
2018-09-22T14:44:38.736Z,18.90
2018-09-22T14:49:42.319Z,18.90
2018-09-22T14:54:46.090Z,18.90
2018-09-22T14:59:50.238Z,19.00
2018-09-22T15:04:54.331Z,18.60
2018-09-22T15:09:59.342Z,18.40
2018-09-22T15:15:03.577Z,18.50
2018-09-22T15:20:08.238Z,18.80
2018-09-22T15:25:11.989Z,18.90
2018-09-22T15:30:16.773Z,18.70
2018-09-22T15:35:21.146Z,18.50
2018-09-22T15:40:24.688Z,18.30
2018-09-22T15:45:28.492Z,18.10
2018-09-22T15:50:32.197Z,18.00
2018-09-22T15:55:36.022Z,17.80
2018-09-22T16:00:42.874Z,17.50
2018-09-22T16:05:47.160Z,17.30
2018-09-22T16:16:10.409Z,17.00
2018-09-22T16:21:13.997Z,17.00
2018-09-22T16:26:17.761Z,17.00
2018-09-22T16:31:21.535Z,16.90
2018-09-22T16:36:25.185Z,16.80
2018-09-22T16:41:30.618Z,16.70
2018-09-22T16:46:35.373Z,16.50
2018-09-22T16:51:42.679Z,16.40
2018-09-22T16:56:46.534Z,16.30
2018-09-22T17:01:50.326Z,16.00
2018-09-22T17:06:55.444Z,15.80
2018-09-22T17:11:59.179Z,15.50
2018-09-22T17:17:03.793Z,15.30
2018-09-22T17:22:07.814Z,15.10
2018-09-22T17:27:11.761Z,14.90
2018-09-22T17:32:15.711Z,14.70
2018-09-22T17:37:19.687Z,14.50
2018-09-22T17:42:23.296Z,14.30
2018-09-22T17:47:29.507Z,14.20
2018-09-22T17:52:33.856Z,14.10
2018-09-22T17:57:37.937Z,14.10
2018-09-22T18:02:43.294Z,14.00
2018-09-22T18:07:47.242Z,14.00
2018-09-22T18:12:51.380Z,14.00
2018-09-22T18:17:55.845Z,14.00
2018-09-22T18:23:02.668Z,14.00
2018-09-22T18:28:06.657Z,14.00
2018-09-22T18:33:10.582Z,14.00
2018-09-22T18:38:14.374Z,14.00
2018-09-22T18:43:18.070Z,13.90
2018-09-22T18:48:22.102Z,13.90
2018-09-22T18:53:34.204Z,13.90
2018-09-22T18:58:41.901Z,13.90
2018-09-22T19:03:46.882Z,13.80
2018-09-22T19:08:51.066Z,13.70
2018-09-22T19:13:58.365Z,13.50
2018-09-22T19:19:07.825Z,13.40
2018-09-22T19:24:17.696Z,13.30
2018-09-22T19:29:26.317Z,13.20
2018-09-22T19:34:37.852Z,13.10
2018-09-22T19:39:52.094Z,13.00
2018-09-22T19:44:59.486Z,13.00
2018-09-22T19:50:06.981Z,13.00
2018-09-22T19:55:10.894Z,13.00
2018-09-22T20:00:14.421Z,13.00
2018-09-22T20:05:18.339Z,12.80
2018-09-22T20:10:22.361Z,12.80
2018-09-22T20:15:26.297Z,12.80
2018-09-22T20:20:30.032Z,12.70
2018-09-22T20:25:34.063Z,12.70
2018-09-22T20:30:38.375Z,12.70
2018-09-22T20:35:42.016Z,12.60
2018-09-22T20:40:46.085Z,12.50
2018-09-22T20:45:49.911Z,12.60
2018-09-22T20:50:54.230Z,12.60
2018-09-22T20:55:58.352Z,12.70
2018-09-22T21:01:02.131Z,12.80
2018-09-22T21:06:05.650Z,12.80
2018-09-22T21:11:09.152Z,12.70
2018-09-22T21:16:12.667Z,12.60
2018-09-22T21:21:16.194Z,12.60
2018-09-22T21:26:19.678Z,12.60
2018-09-22T21:31:23.438Z,12.50
2018-09-22T21:36:27.041Z,12.50
2018-09-22T21:41:30.675Z,12.60
2018-09-22T21:46:34.527Z,12.60
2018-09-22T21:51:38.439Z,12.60
2018-09-22T21:56:42.506Z,12.50
2018-09-22T22:01:46.324Z,12.50
2018-09-22T22:06:49.887Z,12.50
2018-09-22T22:11:53.410Z,12.50
2018-09-22T22:16:57.051Z,12.50
2018-09-22T22:22:00.516Z,12.50
2018-09-22T22:27:04.132Z,12.50
2018-09-22T22:32:07.710Z,12.40
2018-09-22T22:37:11.742Z,12.40
2018-09-22T22:42:15.732Z,12.40
2018-09-22T22:47:19.868Z,12.30
2018-09-22T22:52:23.880Z,12.30
2018-09-22T22:57:27.401Z,12.10
2018-09-22T23:02:31.131Z,12.10
2018-09-22T23:07:35.054Z,12.10
2018-09-22T23:12:39.024Z,12.00
2018-09-22T23:17:42.983Z,12.10
2018-09-22T23:22:47.491Z,12.00
2018-09-22T23:27:51.390Z,12.10
2018-09-22T23:32:54.857Z,12.00
2018-09-22T23:37:58.328Z,12.00
2018-09-22T23:43:02.142Z,12.00
2018-09-22T23:48:05.644Z,11.90
2018-09-22T23:53:09.122Z,11.90
2018-09-22T23:58:13.004Z,11.90
